createdAt,value
2023-05-16T00:02:05.989Z,99175.00
2023-05-16T00:04:33.880Z,99167.91
2023-05-16T00:07:01.521Z,99167.09
2023-05-16T00:09:29.042Z,99160.56
2023-05-16T00:11:57.028Z,99154.53
2023-05-16T00:14:26.318Z,99151.00
2023-05-16T00:16:54.159Z,99151.56
2023-05-16T00:19:22.043Z,99135.22
2023-05-16T00:21:49.624Z,99139.03
2023-05-16T00:24:17.074Z,99137.13
2023-05-16T00:26:44.784Z,99138.19
2023-05-16T00:29:12.206Z,99142.81
2023-05-16T00:31:39.758Z,99143.66
2023-05-16T00:34:07.573Z,99149.09
2023-05-16T00:36:35.895Z,99147.19
2023-05-16T00:39:04.324Z,99155.63
2023-05-16T00:41:32.019Z,99151.81
2023-05-16T00:43:59.584Z,99144.72
2023-05-16T00:46:27.966Z,99147.44
2023-05-16T00:48:55.703Z,99153.72
2023-05-16T00:51:23.142Z,99153.72
2023-05-16T00:53:50.523Z,99157.25
2023-05-16T00:56:19.250Z,99164.63
2023-05-16T00:58:48.252Z,99161.91
2023-05-16T01:01:15.936Z,99163.78
2023-05-16T01:03:47.095Z,99161.06
2023-05-16T01:06:14.578Z,99158.34
2023-05-16T01:08:42.295Z,99169.25
2023-05-16T01:11:23.601Z,99180.97
2023-05-16T01:14:11.046Z,99185.59
2023-05-16T01:16:44.705Z,99175.50
2023-05-16T01:19:32.321Z,99165.91
2023-05-16T01:22:05.676Z,99150.16
2023-05-16T01:24:58.211Z,99147.09
2023-05-16T01:27:26.376Z,99158.56
2023-05-16T01:29:56.998Z,99169.72
2023-05-16T01:32:24.844Z,99168.06
2023-05-16T01:34:52.679Z,99168.91
2023-05-16T01:37:24.563Z,99162.63
2023-05-16T01:39:59.676Z,99146.03
2023-05-16T01:42:28.898Z,99133.47
2023-05-16T01:45:18.132Z,99130.75
2023-05-16T01:47:48.524Z,99134.06
2023-05-16T01:50:19.800Z,99140.00
2023-05-16T01:52:52.186Z,99128.28
2023-05-16T01:55:42.959Z,99125.56
2023-05-16T01:58:10.817Z,99126.13
2023-05-16T02:00:38.329Z,99122.00
2023-05-16T02:03:06.811Z,99120.12
2023-05-16T02:05:34.369Z,99117.41
2023-05-16T02:08:02.981Z,99116.53
2023-05-16T02:10:31.426Z,99114.66
2023-05-16T02:13:00.384Z,99122.84
2023-05-16T02:15:28.163Z,99129.94
2023-05-16T02:17:56.280Z,99131.00
2023-05-16T02:20:23.771Z,99121.16
2023-05-16T02:22:51.303Z,99112.78
2023-05-16T02:25:19.163Z,99103.78
2023-05-16T02:27:46.578Z,99094.75
2023-05-16T02:30:14.103Z,99088.47
2023-05-16T02:32:44.912Z,99093.94
2023-05-16T02:35:12.598Z,99092.28
2023-05-16T02:37:40.619Z,99084.09
2023-05-16T02:40:09.060Z,99077.84
2023-05-16T02:42:37.245Z,99086.84
2023-05-16T02:45:05.042Z,99095.00
2023-05-16T02:47:32.842Z,99105.06
2023-05-16T02:50:00.459Z,99115.97
2023-05-16T02:52:27.903Z,99110.53
2023-05-16T02:55:16.122Z,99117.63
2023-05-16T02:57:43.758Z,99113.25
2023-05-16T03:00:14.827Z,99101.28
2023-05-16T03:02:44.100Z,99091.19
2023-05-16T03:05:11.955Z,99077.59
2023-05-16T03:07:40.072Z,99071.56
2023-05-16T03:10:08.000Z,99068.84
2023-05-16T03:12:35.872Z,99077.00
2023-05-16T03:15:04.299Z,99084.38
2023-05-16T03:17:31.960Z,99092.28
2023-05-16T03:19:59.891Z,99096.91
2023-05-16T03:22:28.242Z,99112.44
2023-05-16T03:24:56.392Z,99106.97
2023-05-16T03:27:24.538Z,99111.34
2023-05-16T03:29:52.006Z,99108.87
2023-05-16T03:32:19.596Z,99105.06
2023-05-16T03:34:47.348Z,99103.44
2023-05-16T03:37:16.153Z,99102.34
2023-05-16T03:39:43.765Z,99100.72
2023-05-16T03:42:11.426Z,99095.00
2023-05-16T03:44:38.937Z,99081.38
2023-05-16T03:47:06.471Z,99070.50
2023-05-16T03:49:34.201Z,99070.50
2023-05-16T03:52:02.026Z,99076.75
2023-05-16T03:54:29.443Z,99083.28
2023-05-16T03:56:57.161Z,99077.00
2023-05-16T03:59:24.651Z,99077.28
2023-05-16T04:01:52.080Z,99081.88
2023-05-16T04:04:19.773Z,99081.03
2023-05-16T04:06:47.386Z,99071.22
2023-05-16T04:09:14.776Z,99077.75
2023-05-16T04:11:42.914Z,99076.66
2023-05-16T04:14:10.424Z,99086.75
2023-05-16T04:16:38.152Z,99084.84
2023-05-16T04:19:06.021Z,99095.47
2023-05-16T04:21:33.564Z,99091.12
2023-05-16T04:24:01.221Z,99081.28
2023-05-16T04:26:30.210Z,99089.47
2023-05-16T04:28:59.597Z,99106.06
2023-05-16T04:31:27.662Z,99111.50
2023-05-16T04:33:56.116Z,99115.88
2023-05-16T04:36:23.579Z,99116.69
2023-05-16T04:38:51.031Z,99126.53
2023-05-16T04:41:18.742Z,99121.06
2023-05-16T04:43:46.323Z,99118.34
2023-05-16T04:46:15.582Z,99111.00
2023-05-16T04:48:43.297Z,99111.00
2023-05-16T04:51:10.733Z,99111.00
2023-05-16T04:53:38.166Z,99107.47
2023-05-16T04:56:06.096Z,99120.00
2023-05-16T04:58:33.459Z,99126.28
2023-05-16T05:01:01.771Z,99122.72
2023-05-16T05:03:29.700Z,99122.50
2023-05-16T05:05:57.195Z,99127.13
2023-05-16T05:08:24.650Z,99121.69
2023-05-16T05:10:52.380Z,99124.41
2023-05-16T05:13:19.818Z,99129.03
2023-05-16T05:15:47.231Z,99136.12
2023-05-16T05:18:15.090Z,99136.94
2023-05-16T05:20:43.564Z,99140.75
2023-05-16T05:23:10.985Z,99136.34
2023-05-16T05:25:39.104Z,99138.25
2023-05-16T05:28:06.620Z,99127.59
2023-05-16T05:30:34.090Z,99131.97
2023-05-16T05:33:02.037Z,99128.16
2023-05-16T05:35:29.763Z,99118.34
2023-05-16T05:37:57.383Z,99121.91
2023-05-16T05:40:25.132Z,99128.16
2023-05-16T05:42:52.528Z,99122.72
2023-05-16T05:45:20.007Z,99122.72
2023-05-16T05:47:47.712Z,99128.16
2023-05-16T05:50:16.248Z,99126.28
2023-05-16T05:52:43.694Z,99124.63
2023-05-16T05:55:11.424Z,99130.88
2023-05-16T05:57:38.931Z,99126.88
2023-05-16T06:00:07.058Z,99121.69
2023-05-16T06:02:35.204Z,99113.50
2023-05-16T06:05:03.060Z,99116.22
2023-05-16T06:07:31.466Z,99115.63
2023-05-16T06:09:59.744Z,99114.81
2023-05-16T06:12:27.421Z,99112.09
2023-05-16T06:14:55.754Z,99111.25
2023-05-16T06:17:23.261Z,99109.63
2023-05-16T06:19:51.532Z,99103.91
2023-05-16T06:22:19.088Z,99095.47
2023-05-16T06:24:46.511Z,99093.84
2023-05-16T06:27:14.210Z,99099.88
2023-05-16T06:29:41.679Z,99094.19
2023-05-16T06:32:10.401Z,99094.75
2023-05-16T06:34:40.189Z,99096.66
2023-05-16T06:37:07.729Z,99088.25
2023-05-16T06:39:35.163Z,99085.53
2023-05-16T06:42:02.965Z,99078.75
2023-05-16T06:44:32.673Z,99077.66
2023-05-16T06:47:00.291Z,99085.63
2023-05-16T06:49:28.084Z,99082.06
2023-05-16T06:51:55.518Z,99079.91
2023-05-16T06:54:22.963Z,99091.63
2023-05-16T06:56:50.875Z,99089.50
2023-05-16T06:59:18.481Z,99093.06
2023-05-16T07:01:46.123Z,99084.63
2023-05-16T07:04:14.471Z,99089.00
2023-05-16T07:06:41.968Z,99089.81
2023-05-16T07:09:09.511Z,99093.63
2023-05-16T07:11:37.382Z,99091.72
2023-05-16T07:14:04.885Z,99097.16
2023-05-16T07:16:32.761Z,99097.16
2023-05-16T07:19:00.621Z,99096.09
2023-05-16T07:21:28.242Z,99080.00
2023-05-16T07:23:55.740Z,99069.91
2023-05-16T07:26:24.004Z,99073.47
2023-05-16T07:28:51.481Z,99074.28
2023-05-16T07:31:19.355Z,99073.25
2023-05-16T07:33:47.296Z,99076.19
2023-05-16T07:36:16.810Z,99068.03
2023-05-16T07:38:44.945Z,99073.47
2023-05-16T07:41:12.717Z,99074.72
2023-05-16T07:43:40.154Z,99072.97
2023-05-16T07:46:07.682Z,99066.38
2023-05-16T07:48:35.443Z,99072.66
2023-05-16T07:51:02.880Z,99072.66
2023-05-16T07:53:30.315Z,99068.28
2023-05-16T07:55:58.039Z,99064.72
2023-05-16T07:58:25.626Z,99073.72
2023-05-16T08:00:53.204Z,99073.72
2023-05-16T08:03:21.033Z,99067.44
2023-05-16T08:05:49.167Z,99072.91
2023-05-16T08:08:16.791Z,99076.44
2023-05-16T08:10:44.547Z,99077.28
2023-05-16T08:13:12.021Z,99082.72
2023-05-16T08:15:39.588Z,99085.44
2023-05-16T08:18:07.442Z,99084.38
2023-05-16T08:20:34.930Z,99084.63
2023-05-16T08:23:02.401Z,99074.81
2023-05-16T08:25:30.212Z,99067.94
2023-05-16T08:27:57.843Z,99069.28
2023-05-16T08:30:26.377Z,99063.22
2023-05-16T08:32:54.154Z,99054.50
2023-05-16T08:35:21.657Z,99060.50
2023-05-16T08:37:49.094Z,99054.22
2023-05-16T08:40:16.861Z,99046.31
2023-05-16T08:42:45.417Z,99046.56
2023-05-16T08:45:13.323Z,99052.03
2023-05-16T08:47:41.686Z,99045.97
2023-05-16T08:50:09.969Z,99046.81
2023-05-16T08:52:38.119Z,99044.91
2023-05-16T08:55:10.840Z,99054.16
2023-05-16T08:57:52.913Z,99047.06
2023-05-16T09:00:21.038Z,99045.16
2023-05-16T09:02:48.572Z,99047.31
2023-05-16T09:05:17.314Z,99055.47
2023-05-16T09:07:47.815Z,99055.47
2023-05-16T09:10:15.455Z,99047.53
2023-05-16T09:12:43.745Z,99042.09
2023-05-16T09:15:11.627Z,99044.00
2023-05-16T09:17:43.775Z,99035.81
2023-05-16T09:20:15.270Z,99045.06
2023-05-16T09:22:53.885Z,99042.34
2023-05-16T09:25:30.393Z,99047.53
2023-05-16T09:28:00.341Z,99037.16
2023-05-16T09:30:38.919Z,99037.97
2023-05-16T09:33:07.156Z,99030.63
2023-05-16T09:35:44.798Z,99027.28
2023-05-16T09:38:18.190Z,99036.31
2023-05-16T09:40:46.547Z,99033.59
2023-05-16T09:43:17.825Z,99034.63
2023-05-16T09:45:47.880Z,99037.59
2023-05-16T09:48:15.774Z,99043.06
2023-05-16T09:50:49.403Z,99049.31
2023-05-16T09:53:17.150Z,99045.78
2023-05-16T09:55:44.631Z,99042.22
2023-05-16T09:58:12.111Z,99034.88
2023-05-16T10:00:39.868Z,99032.41
2023-05-16T10:03:08.048Z,99033.25
2023-05-16T10:05:35.639Z,99031.56
2023-05-16T10:08:03.546Z,99023.38
2023-05-16T10:10:31.715Z,99032.63
2023-05-16T10:12:59.257Z,99032.41
2023-05-16T10:15:27.198Z,99024.47
2023-05-16T10:17:55.204Z,99029.91
2023-05-16T10:20:23.613Z,99020.94
2023-05-16T10:22:51.098Z,99019.28
2023-05-16T10:25:39.464Z,99008.38
2023-05-16T10:28:07.263Z,99012.50
2023-05-16T10:30:35.645Z,99007.56
2023-05-16T10:33:03.166Z,99002.13
2023-05-16T10:35:31.554Z,99012.19
2023-05-16T10:37:59.244Z,99013.00
2023-05-16T10:40:27.068Z,99013.84
2023-05-16T10:42:59.324Z,99013.00
2023-05-16T10:45:27.343Z,99012.19
2023-05-16T10:48:01.721Z,98995.03
2023-05-16T10:50:39.205Z,98981.41
2023-05-16T10:53:35.412Z,98965.06
2023-05-16T10:56:03.385Z,98965.91
2023-05-16T10:58:38.481Z,98964.47
2023-05-16T11:01:29.145Z,98974.56
2023-05-16T11:04:00.225Z,98961.50
2023-05-16T11:06:35.125Z,98948.41
2023-05-16T11:09:13.552Z,98954.66
2023-05-16T11:11:49.442Z,98956.56
2023-05-16T11:14:23.708Z,98939.41
2023-05-16T11:17:00.028Z,98924.72
2023-05-16T11:19:46.209Z,98911.37
2023-05-16T11:22:24.220Z,98921.72
2023-05-16T11:25:10.683Z,98924.72
2023-05-16T11:27:48.192Z,98922.81
2023-05-16T11:30:17.830Z,98923.91
2023-05-16T11:32:46.425Z,98928.75
2023-05-16T11:35:15.476Z,98931.47
2023-05-16T11:37:43.656Z,98939.63
2023-05-16T11:40:12.723Z,98931.25
2023-05-16T11:42:44.331Z,98932.31
2023-05-16T11:45:14.868Z,98926.87
2023-05-16T11:47:44.542Z,98915.12
2023-05-16T11:50:15.780Z,98918.72
2023-05-16T11:52:44.981Z,98921.81
2023-05-16T11:55:15.591Z,98919.28
2023-05-16T11:57:44.854Z,98909.69
2023-05-16T12:00:19.670Z,98912.41
2023-05-16T12:02:48.304Z,98917.03
2023-05-16T12:05:16.880Z,98908.03
2023-05-16T12:07:45.066Z,98902.59
2023-05-16T12:10:14.465Z,98906.41
2023-05-16T12:12:43.771Z,98907.22
2023-05-16T12:15:13.873Z,98905.31
2023-05-16T12:17:41.745Z,98906.97
2023-05-16T12:20:14.408Z,98913.50
2023-05-16T12:22:43.346Z,98907.22
2023-05-16T12:25:24.188Z,98911.59
2023-05-16T12:27:53.836Z,98910.28
2023-05-16T12:30:25.435Z,98909.94
2023-05-16T12:33:09.866Z,98914.31
2023-05-16T12:35:41.774Z,98903.41
2023-05-16T12:38:13.838Z,98901.78
2023-05-16T12:40:42.174Z,98902.03
2023-05-16T12:43:16.755Z,98906.41
2023-05-16T12:45:53.275Z,98918.94
2023-05-16T12:48:21.669Z,98912.66
2023-05-16T12:50:49.494Z,98917.28
2023-05-16T12:53:17.755Z,98911.03
2023-05-16T12:55:45.533Z,98908.31
2023-05-16T12:58:13.067Z,98905.59
2023-05-16T13:00:40.631Z,98897.41
2023-05-16T13:03:08.515Z,98890.31
2023-05-16T13:05:38.996Z,98888.41
2023-05-16T13:08:07.775Z,98884.62
2023-05-16T13:10:36.177Z,98875.63
2023-05-16T13:13:04.541Z,98869.94
2023-05-16T13:15:32.163Z,98868.03
2023-05-16T13:18:00.012Z,98859.84
2023-05-16T13:20:28.234Z,98852.28
2023-05-16T13:22:56.086Z,98831.59
2023-05-16T13:25:23.790Z,98820.44
2023-05-16T13:27:51.357Z,98812.00
2023-05-16T13:30:18.833Z,98802.75
2023-05-16T13:32:46.600Z,98794.59
2023-05-16T13:35:14.154Z,98788.31
2023-05-16T13:37:41.638Z,98792.69
2023-05-16T13:40:12.897Z,98796.00
2023-05-16T13:42:40.329Z,98799.53
2023-05-16T13:45:08.164Z,98796.81
2023-05-16T13:47:36.939Z,98797.37
2023-05-16T13:50:09.221Z,98813.47
2023-05-16T13:52:38.206Z,98815.12
2023-05-16T13:55:06.534Z,98819.50
2023-05-16T13:57:34.297Z,98823.88
2023-05-16T14:00:31.199Z,98820.09
2023-05-16T14:02:52.988Z,98811.41
2023-05-16T14:05:20.562Z,98814.97
2023-05-16T14:07:48.090Z,98808.69
2023-05-16T14:10:15.834Z,98805.72
2023-05-16T14:12:43.563Z,98807.38
2023-05-16T14:15:11.288Z,98813.16
2023-05-16T14:17:39.168Z,98809.34
2023-05-16T14:20:10.699Z,98806.88
2023-05-16T14:22:38.547Z,98808.53
2023-05-16T14:25:07.295Z,98818.06
2023-05-16T14:27:34.826Z,98815.34
2023-05-16T14:30:02.380Z,98834.19
2023-05-16T14:32:31.725Z,98838.28
2023-05-16T14:34:59.279Z,98840.53
2023-05-16T14:37:27.447Z,98847.88
2023-05-16T14:39:55.256Z,98847.28
2023-05-16T14:42:22.762Z,98851.91
2023-05-16T14:44:50.189Z,98855.44
2023-05-16T14:47:17.885Z,98855.72
2023-05-16T14:49:54.288Z,98857.63
2023-05-16T14:52:22.073Z,98852.16
2023-05-16T14:54:49.548Z,98852.72
2023-05-16T14:57:17.132Z,98844.00
2023-05-16T14:59:44.904Z,98849.44
2023-05-16T15:02:12.613Z,98848.63
2023-05-16T15:04:40.468Z,98846.72
2023-05-16T15:07:08.227Z,98850.53
2023-05-16T15:09:35.688Z,98843.19
2023-05-16T15:12:03.174Z,98853.25
2023-05-16T15:14:30.916Z,98847.81
2023-05-16T15:16:58.384Z,98848.84
2023-05-16T15:19:25.903Z,98839.03
2023-05-16T15:21:53.734Z,98834.41
2023-05-16T15:24:21.223Z,98828.97
2023-05-16T15:26:49.980Z,98801.72
2023-05-16T15:29:20.062Z,98797.09
2023-05-16T15:31:47.565Z,98800.09
2023-05-16T15:34:15.090Z,98791.66
2023-05-16T15:36:43.104Z,98782.66
2023-05-16T15:39:10.905Z,98785.16
2023-05-16T15:42:05.365Z,98800.69
2023-05-16T15:44:26.061Z,98786.22
2023-05-16T15:46:53.614Z,98794.97
2023-05-16T15:49:21.369Z,98793.31
2023-05-16T15:51:50.715Z,98788.69
2023-05-16T15:54:18.593Z,98783.00
2023-05-16T15:56:46.207Z,98789.03
2023-05-16T15:59:14.015Z,98780.25
2023-05-16T16:01:41.591Z,98781.91
2023-05-16T16:04:09.430Z,98781.91
2023-05-16T16:06:36.932Z,98783.56
2023-05-16T16:09:04.396Z,98781.66
2023-05-16T16:11:32.300Z,98779.75
2023-05-16T16:13:59.875Z,98777.59
2023-05-16T16:16:27.564Z,98784.94
2023-05-16T16:18:56.922Z,98784.69
2023-05-16T16:21:24.428Z,98780.91
2023-05-16T16:23:51.920Z,98784.69
2023-05-16T16:26:19.668Z,98784.47
2023-05-16T16:28:47.282Z,98788.00
2023-05-16T16:31:15.057Z,98773.28
2023-05-16T16:33:42.961Z,98778.75
2023-05-16T16:36:10.434Z,98776.03
2023-05-16T16:38:37.915Z,98774.37
2023-05-16T16:41:05.764Z,98767.03
2023-05-16T16:43:33.526Z,98758.84
2023-05-16T16:46:01.365Z,98777.09
2023-05-16T16:48:29.199Z,98781.72
2023-05-16T16:50:56.763Z,98786.91
2023-05-16T16:53:24.364Z,98785.84
2023-05-16T16:55:52.293Z,98785.84
2023-05-16T16:58:19.769Z,98780.66
2023-05-16T17:00:47.927Z,98790.47
2023-05-16T17:03:16.272Z,98789.63
2023-05-16T17:05:45.013Z,98795.09
2023-05-16T17:08:12.616Z,98794.81
2023-05-16T17:10:40.365Z,98795.09
2023-05-16T17:13:10.428Z,98787.72
2023-05-16T17:15:38.092Z,98788.00
2023-05-16T17:18:09.159Z,98790.72
2023-05-16T17:20:37.089Z,98788.81
2023-05-16T17:25:50.619Z,98785.28
2023-05-16T17:28:19.103Z,98761.00
2023-05-16T17:30:46.632Z,98768.34
2023-05-16T17:33:14.763Z,98766.69
2023-05-16T17:35:42.309Z,98772.16
2023-05-16T17:38:10.802Z,98774.06
2023-05-16T17:40:40.103Z,98781.41
2023-05-16T17:43:07.755Z,98780.06
2023-05-16T17:45:35.239Z,98790.13
2023-05-16T17:48:03.120Z,98788.22
2023-05-16T17:50:30.914Z,98793.44
2023-05-16T17:52:58.847Z,98790.13
2023-05-16T17:55:27.068Z,98795.34
2023-05-16T17:57:54.719Z,98790.72
2023-05-16T18:00:23.251Z,98797.81
2023-05-16T18:02:52.349Z,98793.44
2023-05-16T18:05:21.022Z,98786.66
2023-05-16T18:07:48.659Z,98786.66
2023-05-16T18:10:16.929Z,98783.69
2023-05-16T18:12:44.562Z,98784.50
2023-05-16T18:15:12.649Z,98787.25
2023-05-16T18:17:40.732Z,98784.50
2023-05-16T18:20:11.747Z,98779.88
2023-05-16T18:22:39.514Z,98772.78
2023-05-16T18:25:09.227Z,98776.06
2023-05-16T18:27:37.207Z,98790.53
2023-05-16T18:30:05.750Z,98783.75
2023-05-16T18:32:35.279Z,98789.19
2023-05-16T18:35:03.832Z,98791.41
2023-05-16T18:37:31.855Z,98778.31
2023-05-16T18:40:01.748Z,98777.22
2023-05-16T18:42:29.614Z,98779.69
2023-05-16T18:44:57.559Z,98787.63
2023-05-16T18:47:26.387Z,98797.69
2023-05-16T18:49:54.811Z,98784.06
2023-05-16T18:52:22.476Z,98785.94
2023-05-16T18:54:51.037Z,98782.41
2023-05-16T18:57:18.689Z,98788.66
2023-05-16T18:59:46.864Z,98776.72
2023-05-16T19:02:14.895Z,98780.00
2023-05-16T19:04:42.700Z,98786.25
2023-05-16T19:07:10.859Z,98788.75
2023-05-16T19:09:41.116Z,98786.59
2023-05-16T19:12:08.843Z,98784.69
2023-05-16T19:14:36.323Z,98784.56
2023-05-16T19:17:07.208Z,98790.78
2023-05-16T19:19:34.889Z,98798.13
2023-05-16T19:22:03.022Z,98804.50
2023-05-16T19:24:31.476Z,98800.91
2023-05-16T19:27:02.273Z,98798.19
2023-05-16T19:29:33.218Z,98801.47
2023-05-16T19:32:01.446Z,98800.66
2023-05-16T19:34:29.160Z,98805.00
2023-05-16T19:36:57.208Z,98800.16
2023-05-16T19:39:26.350Z,98798.22
2023-05-16T19:41:56.889Z,98792.19
2023-05-16T19:44:25.200Z,98798.47
2023-05-16T19:46:52.739Z,98793.03
2023-05-16T19:49:20.629Z,98793.28
2023-05-16T19:51:48.660Z,98793.28
2023-05-16T19:54:16.123Z,98783.69
2023-05-16T19:56:43.569Z,98791.06
2023-05-16T19:59:11.456Z,98791.88
2023-05-16T20:04:11.774Z,98800.31
2023-05-16T20:06:39.517Z,98800.31
2023-05-16T20:09:07.504Z,98803.87
2023-05-16T20:11:35.550Z,98795.97
2023-05-16T20:14:03.320Z,98801.41
2023-05-16T20:16:30.907Z,98811.50
2023-05-16T20:18:58.803Z,98810.66
2023-05-16T20:21:26.280Z,98795.13
2023-05-16T20:23:53.784Z,98797.28
2023-05-16T20:26:22.442Z,98793.19
2023-05-16T20:28:49.915Z,98807.62
2023-05-16T20:31:17.536Z,98804.09
2023-05-16T20:33:46.988Z,98793.19
2023-05-16T20:36:14.726Z,98798.63
2023-05-16T20:38:42.191Z,98806.22
2023-05-16T20:41:09.879Z,98803.50
2023-05-16T20:43:37.317Z,98804.56
2023-05-16T20:46:04.879Z,98796.66
2023-05-16T20:48:32.790Z,98790.94
2023-05-16T20:51:01.440Z,98791.47
2023-05-16T20:53:28.925Z,98794.22
2023-05-16T20:55:57.083Z,98796.94
2023-05-16T20:58:24.625Z,98798.81
2023-05-16T21:00:52.137Z,98791.72
2023-05-16T21:03:19.963Z,98798.25
2023-05-16T21:05:47.446Z,98803.69
2023-05-16T21:08:15.016Z,98798.25
2023-05-16T21:10:42.738Z,98800.16
2023-05-16T21:13:11.248Z,98802.06
2023-05-16T21:15:39.622Z,98798.75
2023-05-16T21:18:07.597Z,98801.47
2023-05-16T21:20:35.242Z,98800.66
2023-05-16T21:23:02.811Z,98800.66
2023-05-16T21:25:30.756Z,98799.84
2023-05-16T21:27:58.437Z,98803.66
2023-05-16T21:30:25.885Z,98799.84
2023-05-16T21:32:53.643Z,98786.22
2023-05-16T21:35:21.325Z,98779.13
2023-05-16T21:37:48.782Z,98781.84
2023-05-16T21:40:19.176Z,98777.47
2023-05-16T21:42:46.692Z,98780.22
2023-05-16T21:45:16.574Z,98779.38
2023-05-16T21:47:44.675Z,98780.44
2023-05-16T21:50:12.309Z,98780.44
2023-05-16T21:52:39.762Z,98791.34
2023-05-16T21:55:07.929Z,98785.88
2023-05-16T21:57:35.454Z,98781.53
2023-05-16T22:00:06.694Z,98781.25
2023-05-16T22:02:38.084Z,98788.63
2023-05-16T22:05:06.570Z,98790.53
2023-05-16T22:07:34.120Z,98792.41
2023-05-16T22:10:01.646Z,98791.59
2023-05-16T22:12:29.609Z,98791.59
2023-05-16T22:14:57.349Z,98789.69
2023-05-16T22:17:24.925Z,98776.06
2023-05-16T22:19:52.823Z,98780.69
2023-05-16T22:22:21.713Z,98777.16
2023-05-16T22:24:49.212Z,98788.06
2023-05-16T22:27:17.077Z,98788.87
2023-05-16T22:29:44.608Z,98793.50
2023-05-16T22:32:12.200Z,98793.50
2023-05-16T22:34:40.009Z,98794.59
2023-05-16T22:37:08.301Z,98782.59
2023-05-16T22:39:35.819Z,98776.34
2023-05-16T22:42:03.896Z,98783.69
2023-05-16T22:44:31.345Z,98778.25
2023-05-16T22:46:58.794Z,98774.69
2023-05-16T22:49:26.655Z,98780.97
2023-05-16T22:51:54.156Z,98788.31
2023-05-16T22:54:21.652Z,98791.88
2023-05-16T22:56:49.398Z,98794.59
2023-05-16T22:59:16.874Z,98787.47
2023-05-16T23:01:44.348Z,98789.37
2023-05-16T23:04:12.093Z,98793.19
2023-05-16T23:06:39.697Z,98794.00
2023-05-16T23:09:07.129Z,98793.78
2023-05-16T23:11:34.860Z,98794.59
2023-05-16T23:14:02.403Z,98800.03
2023-05-16T23:16:29.847Z,98792.91
2023-05-16T23:18:57.823Z,98795.41
2023-05-16T23:21:25.389Z,98798.13
2023-05-16T23:23:52.832Z,98800.84
2023-05-16T23:26:20.547Z,98795.41
2023-05-16T23:28:48.077Z,98797.31
2023-05-16T23:31:15.740Z,98804.41
2023-05-16T23:33:43.508Z,98812.84
2023-05-16T23:36:11.067Z,98810.13
2023-05-16T23:38:41.521Z,98810.94
2023-05-16T23:41:09.252Z,98809.84
2023-05-16T23:43:36.657Z,98816.38
2023-05-16T23:46:04.112Z,98808.22
2023-05-16T23:48:31.942Z,98810.94
2023-05-16T23:50:59.515Z,98806.31
2023-05-16T23:53:29.134Z,98803.59
2023-05-16T23:55:56.879Z,98804.66
2023-05-16T23:58:24.571Z,98805.50
